Terminal Aerodrome Forecast
Issued by NWS Goodland, KS

Home | Current Version | Previous Version | Text Only | Print | Product List | Glossary On
Versions: 1 2 3 4 5 6 7 8 9 10 11 12 13 14
000
FTUS43 KGLD 231100
TAFGLD
TAF
KGLD 231120Z 2312/2412 11012KT P6SM BKN004 BKN010
      TEMPO 2312/2314 4SM BR SCT010
     FM231400 16010G18KT P6SM SCT250
     FM240100 18010KT P6SM VCTS SCT060CB SCT250
     FM240600 18010KT P6SM FEW250=

USA.gov is the U.S. government's official web portal to all federal, state and local government web resources and services.